createdAt,value
2018-09-24T00:02:07.967Z,6.07
2018-09-24T00:04:37.835Z,6.20
2018-09-24T00:07:07.689Z,6.30
2018-09-24T00:09:37.665Z,5.87
2018-09-24T00:12:07.598Z,5.70
2018-09-24T00:14:37.559Z,6.27
2018-09-24T00:17:07.386Z,6.07
2018-09-24T00:19:37.218Z,5.53
2018-09-24T00:22:07.045Z,7.17
2018-09-24T00:24:36.862Z,6.43
2018-09-24T00:27:06.784Z,5.93
2018-09-24T00:29:37.141Z,7.50
2018-09-24T00:32:06.868Z,6.20
2018-09-24T00:34:36.766Z,5.80
2018-09-24T00:37:06.588Z,6.40
2018-09-24T00:39:36.357Z,6.40
2018-09-24T00:42:06.315Z,6.33
2018-09-24T00:44:36.223Z,6.10
2018-09-24T00:47:06.166Z,6.50
2018-09-24T00:49:36.589Z,6.50
2018-09-24T00:52:06.380Z,6.27
2018-09-24T00:54:36.226Z,6.13
2018-09-24T00:57:06.077Z,6.33
2018-09-24T00:59:35.877Z,7.17
2018-09-24T01:02:05.722Z,7.33
2018-09-24T01:04:36.168Z,6.00
2018-09-24T01:07:05.965Z,7.17
2018-09-24T01:09:35.699Z,6.70
2018-09-24T01:12:07.252Z,6.57
2018-09-24T01:14:37.668Z,8.37
2018-09-24T01:17:07.504Z,7.13
2018-09-24T01:19:37.375Z,7.30
2018-09-24T01:22:07.388Z,7.40
2018-09-24T01:24:37.381Z,14.80
2018-09-24T01:27:07.363Z,14.17
2018-09-24T01:29:37.121Z,10.63
2018-09-24T01:32:07.402Z,10.90
2018-09-24T01:34:37.999Z,10.53
2018-09-24T01:37:07.881Z,9.47
2018-09-24T01:39:37.666Z,8.70
2018-09-24T01:42:07.455Z,7.63
2018-09-24T01:44:37.239Z,8.40
2018-09-24T01:47:07.422Z,7.20
2018-09-24T01:49:37.213Z,7.70
2018-09-24T01:52:07.182Z,8.33
2018-09-24T01:54:36.957Z,9.23
2018-09-24T01:57:13.734Z,8.90
2018-09-24T01:59:49.643Z,8.40
2018-09-24T02:02:19.642Z,8.10
2018-09-24T02:04:50.684Z,7.47
2018-09-24T02:07:20.927Z,7.80
2018-09-24T02:09:50.750Z,9.23
2018-09-24T02:12:20.627Z,8.60
2018-09-24T02:14:51.210Z,10.13
2018-09-24T02:17:23.086Z,9.40
2018-09-24T02:19:53.312Z,9.63
2018-09-24T02:22:30.315Z,8.87
2018-09-24T02:25:01.230Z,8.17
2018-09-24T02:27:31.222Z,9.07
2018-09-24T02:30:01.171Z,8.53
2018-09-24T02:32:31.384Z,8.00
2018-09-24T02:35:01.644Z,9.03
2018-09-24T02:37:31.539Z,8.03
2018-09-24T02:40:01.515Z,9.70
2018-09-24T02:42:31.241Z,6.80
2018-09-24T02:45:01.164Z,7.40
2018-09-24T02:47:33.436Z,8.93
2018-09-24T02:50:04.184Z,8.80
2018-09-24T02:52:34.123Z,8.97
2018-09-24T02:55:09.336Z,8.90
2018-09-24T02:57:39.224Z,7.70
2018-09-24T03:00:09.028Z,8.93
2018-09-24T03:02:39.401Z,8.17
2018-09-24T03:05:09.750Z,9.53
2018-09-24T03:07:39.576Z,8.50
2018-09-24T03:10:09.341Z,8.13
2018-09-24T03:12:39.700Z,8.13
2018-09-24T03:15:09.463Z,8.90
2018-09-24T03:17:39.420Z,9.13
2018-09-24T03:20:09.245Z,11.30
2018-09-24T03:22:39.177Z,8.33
2018-09-24T03:25:09.302Z,8.50
2018-09-24T03:27:39.089Z,9.90
2018-09-24T03:30:08.901Z,8.57
2018-09-24T03:32:42.162Z,10.57
2018-09-24T03:35:12.399Z,10.13
2018-09-24T03:37:42.188Z,10.70
2018-09-24T03:40:12.103Z,10.80
2018-09-24T03:42:42.020Z,10.20
2018-09-24T03:45:11.822Z,11.80
2018-09-24T03:47:41.691Z,10.13
2018-09-24T03:50:11.418Z,11.50
2018-09-24T03:52:41.313Z,10.90
2018-09-24T03:55:11.090Z,11.10
2018-09-24T03:57:41.272Z,11.37
2018-09-24T04:00:11.131Z,9.17
2018-09-24T04:02:41.733Z,10.10
2018-09-24T04:05:17.461Z,9.60
2018-09-24T04:07:52.231Z,9.00
2018-09-24T04:10:27.144Z,11.73
2018-09-24T04:13:02.203Z,9.27
2018-09-24T04:15:37.448Z,9.30
2018-09-24T04:18:12.473Z,8.60
2018-09-24T04:20:47.426Z,10.63
2018-09-24T04:23:22.269Z,9.80
2018-09-24T04:25:57.765Z,9.30
2018-09-24T04:28:32.739Z,9.83
2018-09-24T04:31:07.676Z,8.27
2018-09-24T04:33:42.823Z,9.33
2018-09-24T04:36:18.330Z,9.43
2018-09-24T04:38:53.156Z,8.77
2018-09-24T04:41:28.044Z,8.47
2018-09-24T04:44:02.747Z,9.03
2018-09-24T04:46:37.766Z,8.80
2018-09-24T04:49:12.626Z,8.77
2018-09-24T04:51:47.541Z,8.77
2018-09-24T04:54:22.563Z,8.67
2018-09-24T04:56:58.231Z,12.00
2018-09-24T04:59:32.972Z,12.40
2018-09-24T05:02:07.852Z,11.43
2018-09-24T05:04:42.847Z,10.20
2018-09-24T05:07:17.565Z,9.30
2018-09-24T05:09:52.447Z,12.23
2018-09-24T05:12:27.118Z,14.00
2018-09-24T05:15:01.876Z,14.03
2018-09-24T05:17:37.509Z,11.43
2018-09-24T05:20:12.248Z,11.10
2018-09-24T05:22:47.073Z,10.60
2018-09-24T05:25:22.024Z,10.80
2018-09-24T05:27:57.591Z,10.73
2018-09-24T05:30:32.425Z,10.50
2018-09-24T05:33:07.404Z,11.63
2018-09-24T05:35:42.279Z,10.77
2018-09-24T05:38:17.346Z,11.23
2018-09-24T05:40:52.106Z,13.50
2018-09-24T05:43:27.078Z,11.43
2018-09-24T05:46:02.546Z,10.27
2018-09-24T05:48:37.395Z,10.17
2018-09-24T05:51:12.939Z,10.33
2018-09-24T05:53:47.626Z,23.80
2018-09-24T05:56:22.406Z,58.20
2018-09-24T05:58:58.100Z,13.20
2018-09-24T06:01:33.060Z,12.90
2018-09-24T06:04:07.891Z,12.67
2018-09-24T06:06:42.823Z,12.63
2018-09-24T06:09:17.923Z,10.47
2018-09-24T06:11:53.002Z,10.87
2018-09-24T06:14:27.660Z,10.17
2018-09-24T06:17:02.634Z,10.23
2018-09-24T06:19:37.660Z,9.17
2018-09-24T06:22:12.545Z,9.20
2018-09-24T06:24:47.650Z,9.37
2018-09-24T06:27:22.513Z,9.50
2018-09-24T06:29:57.542Z,8.73
2018-09-24T06:32:32.652Z,7.40
2018-09-24T06:35:07.531Z,7.93
2018-09-24T06:37:42.270Z,8.93
2018-09-24T06:40:18.230Z,8.00
2018-09-24T06:42:53.158Z,7.30
2018-09-24T06:45:28.035Z,8.90
2018-09-24T06:48:02.930Z,8.30
2018-09-24T06:50:38.869Z,9.43
2018-09-24T06:53:13.692Z,8.50
2018-09-24T06:55:48.566Z,7.30
2018-09-24T06:58:23.435Z,7.87
2018-09-24T07:00:58.896Z,8.80
2018-09-24T07:03:33.839Z,9.23
2018-09-24T07:06:08.796Z,9.87
2018-09-24T07:08:43.697Z,9.30
2018-09-24T07:11:19.613Z,8.30
2018-09-24T07:13:54.446Z,8.27
2018-09-24T07:16:29.263Z,8.37
2018-09-24T07:19:04.031Z,8.27
2018-09-24T07:21:39.384Z,8.67
2018-09-24T07:24:14.166Z,8.07
2018-09-24T07:26:49.009Z,9.40
2018-09-24T07:29:23.921Z,9.70
2018-09-24T07:31:59.527Z,8.60
2018-09-24T07:34:34.316Z,8.37
2018-09-24T07:37:09.383Z,8.53
2018-09-24T07:39:44.504Z,8.67
2018-09-24T07:42:20.033Z,8.80
2018-09-24T07:44:54.910Z,9.17
2018-09-24T07:47:29.592Z,9.00
2018-09-24T07:50:04.462Z,7.43
2018-09-24T07:52:40.346Z,6.60
2018-09-24T07:55:15.142Z,7.87
2018-09-24T07:57:52.329Z,8.00
2018-09-24T08:00:27.238Z,7.77
2018-09-24T08:03:03.306Z,6.13
2018-09-24T08:05:38.150Z,7.30
2018-09-24T08:08:12.824Z,7.60
2018-09-24T08:10:47.662Z,6.93
2018-09-24T08:13:23.217Z,6.97
2018-09-24T08:15:58.030Z,7.47
2018-09-24T08:18:32.853Z,6.87
2018-09-24T08:21:07.668Z,6.80
2018-09-24T08:23:42.861Z,6.20
2018-09-24T08:26:17.738Z,6.40
2018-09-24T08:28:52.519Z,6.90
2018-09-24T08:31:27.301Z,7.00
2018-09-24T08:34:02.826Z,7.40
2018-09-24T08:36:37.661Z,7.30
2018-09-24T08:39:13.760Z,6.73
2018-09-24T08:41:48.964Z,7.80
2018-09-24T08:44:24.727Z,10.90
2018-09-24T08:46:59.561Z,8.30
2018-09-24T08:49:34.418Z,8.93
2018-09-24T08:52:09.193Z,7.67
2018-09-24T08:54:44.433Z,6.20
2018-09-24T08:57:19.411Z,5.70
2018-09-24T08:59:54.284Z,5.40
2018-09-24T09:02:29.138Z,5.97
2018-09-24T09:05:04.748Z,6.43
2018-09-24T09:07:39.644Z,5.77
2018-09-24T09:10:14.456Z,6.00
2018-09-24T09:12:49.483Z,5.50
2018-09-24T09:15:24.990Z,6.17
2018-09-24T09:18:00.128Z,5.07
2018-09-24T09:20:34.909Z,5.60
2018-09-24T09:23:10.292Z,6.03
2018-09-24T09:25:45.159Z,5.40
2018-09-24T09:28:20.068Z,5.70
2018-09-24T09:30:55.033Z,6.13
2018-09-24T09:33:30.012Z,5.20
2018-09-24T09:36:04.786Z,5.33
2018-09-24T09:38:39.538Z,5.60
2018-09-24T09:41:14.439Z,5.17
2018-09-24T09:43:49.354Z,5.57
2018-09-24T09:46:27.228Z,5.43
2018-09-24T09:49:02.019Z,5.37
2018-09-24T09:51:36.883Z,5.30
2018-09-24T09:54:11.761Z,5.23
2018-09-24T09:56:46.538Z,4.73
2018-09-24T09:59:21.691Z,5.90
2018-09-24T10:01:56.567Z,4.67
2018-09-24T10:04:31.283Z,4.20
2018-09-24T10:07:06.215Z,4.50
2018-09-24T10:09:41.185Z,5.57
2018-09-24T10:12:16.151Z,4.47
2018-09-24T10:14:50.798Z,4.70
2018-09-24T10:17:26.642Z,4.37
2018-09-24T10:20:01.701Z,4.80
2018-09-24T10:22:36.672Z,4.70
2018-09-24T10:25:11.703Z,4.40
2018-09-24T10:27:46.982Z,3.70
2018-09-24T10:30:21.777Z,3.90
2018-09-24T10:32:56.777Z,4.47
2018-09-24T10:35:31.653Z,3.07
2018-09-24T10:38:07.363Z,2.60
2018-09-24T10:40:42.179Z,3.93
2018-09-24T10:43:19.315Z,3.20
2018-09-24T10:45:54.603Z,3.50
2018-09-24T10:48:30.318Z,4.17
2018-09-24T10:51:05.314Z,2.70
2018-09-24T10:53:40.216Z,3.50
2018-09-24T10:56:15.185Z,2.90
2018-09-24T10:58:51.129Z,3.33
2018-09-24T11:01:25.970Z,3.10
2018-09-24T11:04:01.944Z,2.90
2018-09-24T11:06:36.912Z,3.60
2018-09-24T11:09:14.150Z,2.17
2018-09-24T11:11:49.169Z,3.10
2018-09-24T11:14:25.101Z,2.87
2018-09-24T11:17:00.645Z,3.00
2018-09-24T11:19:35.765Z,2.93
2018-09-24T11:22:11.598Z,3.03
2018-09-24T11:24:46.598Z,2.57
2018-09-24T11:27:21.630Z,2.73
2018-09-24T11:29:56.696Z,2.17
2018-09-24T11:32:31.392Z,2.30
2018-09-24T11:35:06.792Z,2.53
2018-09-24T11:37:42.321Z,2.80
2018-09-24T11:40:17.881Z,2.87
2018-09-24T11:42:52.636Z,3.00
2018-09-24T11:45:27.642Z,2.50
2018-09-24T11:48:02.653Z,3.10
2018-09-24T11:50:38.731Z,2.77
2018-09-24T11:53:13.595Z,2.47
2018-09-24T11:55:48.509Z,2.90
2018-09-24T11:58:23.545Z,2.60
2018-09-24T12:00:58.293Z,2.93
2018-09-24T12:03:33.187Z,2.40
2018-09-24T12:06:08.182Z,2.20
2018-09-24T12:08:43.106Z,2.70
2018-09-24T12:11:18.645Z,3.03
2018-09-24T12:13:53.466Z,2.77
2018-09-24T12:16:28.253Z,2.40
2018-09-24T12:19:03.217Z,2.30
2018-09-24T12:21:38.700Z,2.23
2018-09-24T12:24:13.708Z,2.30
2018-09-24T12:26:48.379Z,2.40
2018-09-24T12:29:23.324Z,2.53
2018-09-24T12:31:59.230Z,2.83
2018-09-24T12:34:34.187Z,2.83
2018-09-24T12:37:09.314Z,2.40
2018-09-24T12:39:44.262Z,3.37
2018-09-24T12:42:19.846Z,3.00
2018-09-24T12:44:55.007Z,2.60
2018-09-24T12:47:36.954Z,3.83
2018-09-24T12:50:12.169Z,2.13
2018-09-24T12:52:47.049Z,2.17
2018-09-24T12:55:22.923Z,2.90
2018-09-24T12:57:57.796Z,2.80
2018-09-24T13:00:32.522Z,2.87
2018-09-24T13:03:10.314Z,3.50
2018-09-24T13:05:45.118Z,3.20
2018-09-24T13:08:20.256Z,3.13
2018-09-24T13:10:55.955Z,2.90
2018-09-24T13:13:30.928Z,2.60
2018-09-24T13:16:05.826Z,3.10
2018-09-24T13:18:40.882Z,3.00
2018-09-24T13:21:16.503Z,2.37
2018-09-24T13:23:51.161Z,2.47
2018-09-24T13:26:26.150Z,2.73
2018-09-24T13:29:01.032Z,3.00
2018-09-24T13:31:36.742Z,2.50
2018-09-24T13:34:11.657Z,2.73
2018-09-24T13:36:46.683Z,2.73
2018-09-24T13:39:21.600Z,3.10
2018-09-24T13:41:57.013Z,2.90
2018-09-24T13:44:31.588Z,2.97
2018-09-24T13:47:06.618Z,2.67
2018-09-24T13:49:41.403Z,2.70
2018-09-24T13:52:17.267Z,2.90
2018-09-24T13:54:52.047Z,2.70
2018-09-24T13:57:26.969Z,2.97
2018-09-24T14:00:01.879Z,3.30
2018-09-24T14:02:37.618Z,3.20
2018-09-24T14:05:12.371Z,3.30
2018-09-24T14:07:47.269Z,3.07
2018-09-24T14:10:22.175Z,2.90
2018-09-24T14:12:57.722Z,3.40
2018-09-24T14:15:32.610Z,3.60
2018-09-24T14:18:07.569Z,3.67
2018-09-24T14:20:42.315Z,3.03
2018-09-24T14:23:18.538Z,3.57
2018-09-24T14:25:53.338Z,3.27
2018-09-24T14:28:28.105Z,3.20
2018-09-24T14:31:02.992Z,3.10
2018-09-24T14:33:39.191Z,3.40
2018-09-24T14:36:14.329Z,3.60
2018-09-24T14:38:49.227Z,3.47
2018-09-24T14:41:23.898Z,3.50
2018-09-24T14:43:59.822Z,3.30
2018-09-24T14:46:34.543Z,3.93
2018-09-24T14:49:09.224Z,3.83
2018-09-24T14:51:44.117Z,2.97
2018-09-24T14:54:19.304Z,3.63
2018-09-24T14:56:54.075Z,3.40
2018-09-24T14:59:28.964Z,3.00
2018-09-24T15:02:03.913Z,3.60
2018-09-24T15:04:39.211Z,3.27
2018-09-24T15:07:14.102Z,3.70
2018-09-24T15:09:48.922Z,3.57
2018-09-24T15:12:23.652Z,5.60
2018-09-24T15:14:59.009Z,3.90
2018-09-24T15:17:33.826Z,3.40
2018-09-24T15:20:08.877Z,3.77
2018-09-24T15:22:43.740Z,3.40
2018-09-24T15:25:18.916Z,4.00
2018-09-24T15:27:53.746Z,4.13
2018-09-24T15:30:28.694Z,4.50
2018-09-24T15:33:03.589Z,4.30
2018-09-24T15:35:38.442Z,4.10
2018-09-24T15:38:13.152Z,3.33
2018-09-24T15:40:48.059Z,5.30
2018-09-24T15:43:22.941Z,4.10
2018-09-24T15:45:58.625Z,4.07
2018-09-24T15:48:33.531Z,3.50
2018-09-24T15:51:08.477Z,4.23
2018-09-24T15:53:43.403Z,4.53
2018-09-24T15:56:18.985Z,4.10
2018-09-24T15:58:53.670Z,4.30
2018-09-24T16:01:28.641Z,3.90
2018-09-24T16:04:03.591Z,3.40
2018-09-24T16:06:38.726Z,4.07
2018-09-24T16:09:14.892Z,3.77
2018-09-24T16:11:49.821Z,4.67
2018-09-24T16:14:24.693Z,4.07
2018-09-24T16:16:59.555Z,4.17
2018-09-24T16:19:34.299Z,3.87
2018-09-24T16:22:09.284Z,4.33
2018-09-24T16:24:44.111Z,4.90
2018-09-24T16:27:20.913Z,4.30
2018-09-24T16:29:55.768Z,4.17
2018-09-24T16:32:30.648Z,4.23
2018-09-24T16:35:05.474Z,5.03
2018-09-24T16:37:41.043Z,9.10
2018-09-24T16:40:16.004Z,5.03
2018-09-24T16:42:50.961Z,3.83
2018-09-24T16:45:25.829Z,5.27
2018-09-24T16:48:00.940Z,6.67
2018-09-24T16:50:35.750Z,5.00
2018-09-24T16:53:11.018Z,6.50
2018-09-24T16:55:46.081Z,5.90
2018-09-24T16:58:21.825Z,6.43
2018-09-24T17:00:56.875Z,6.00
2018-09-24T17:03:31.766Z,6.70
2018-09-24T17:06:06.750Z,5.70
2018-09-24T17:08:41.723Z,5.80
2018-09-24T17:11:18.114Z,5.13
2018-09-24T17:13:53.142Z,5.30
2018-09-24T17:16:28.058Z,6.20
2018-09-24T17:19:02.954Z,6.70
2018-09-24T17:21:37.925Z,5.43
2018-09-24T17:24:12.824Z,6.40
2018-09-24T17:26:47.529Z,5.30
2018-09-24T17:29:23.195Z,4.80
2018-09-24T17:31:58.261Z,5.50
2018-09-24T17:34:33.229Z,5.50
2018-09-24T17:37:08.084Z,4.73
2018-09-24T17:39:44.095Z,5.10
2018-09-24T17:42:18.903Z,5.67
2018-09-24T17:44:53.838Z,4.53
2018-09-24T17:47:28.565Z,4.60
2018-09-24T17:50:03.847Z,5.20
2018-09-24T17:52:38.682Z,3.97
2018-09-24T17:55:13.590Z,4.80
2018-09-24T17:57:48.289Z,7.33
2018-09-24T18:00:23.887Z,4.93
2018-09-24T18:02:58.512Z,4.73
2018-09-24T18:05:33.297Z,4.73
2018-09-24T18:08:08.187Z,5.60
2018-09-24T18:10:43.624Z,4.57
2018-09-24T18:13:18.317Z,5.37
2018-09-24T18:15:53.184Z,4.73
2018-09-24T18:18:28.021Z,5.20
2018-09-24T18:21:03.321Z,4.50
2018-09-24T18:23:38.089Z,4.63
2018-09-24T18:26:12.846Z,3.83
2018-09-24T18:28:47.673Z,4.30
2018-09-24T18:31:23.274Z,3.80
2018-09-24T18:33:59.073Z,4.80
2018-09-24T18:36:34.001Z,3.83
2018-09-24T18:39:08.872Z,4.27
2018-09-24T18:41:44.370Z,3.77
2018-09-24T18:44:19.307Z,3.40
2018-09-24T18:46:54.070Z,3.33
2018-09-24T18:49:28.956Z,3.30
2018-09-24T18:52:03.979Z,3.23
2018-09-24T18:54:38.774Z,2.80
2018-09-24T18:57:13.771Z,2.90
2018-09-24T18:59:48.614Z,3.23
2018-09-24T19:02:24.499Z,2.43
2018-09-24T19:04:59.293Z,3.07
2018-09-24T19:07:34.205Z,2.67
2018-09-24T19:10:09.015Z,2.07
2018-09-24T19:12:45.049Z,2.97
2018-09-24T19:15:19.864Z,2.60
2018-09-24T19:17:54.704Z,2.83
2018-09-24T19:20:29.640Z,2.83
2018-09-24T19:23:04.986Z,2.57
2018-09-24T19:25:39.970Z,2.37
2018-09-24T19:28:14.895Z,2.47
2018-09-24T19:30:49.761Z,4.20
2018-09-24T19:33:26.019Z,3.27
2018-09-24T19:36:00.992Z,2.33
2018-09-24T19:38:35.971Z,2.40
2018-09-24T19:41:11.526Z,2.20
2018-09-24T19:43:47.218Z,2.47
2018-09-24T19:46:22.001Z,2.50
2018-09-24T19:48:56.853Z,2.57
2018-09-24T19:51:32.119Z,2.07
2018-09-24T19:54:07.894Z,2.53
2018-09-24T19:56:43.375Z,2.00
2018-09-24T19:59:19.142Z,2.90
2018-09-24T20:01:54.085Z,2.50
2018-09-24T20:04:30.016Z,2.50
2018-09-24T20:07:04.978Z,2.37
2018-09-24T20:09:40.016Z,2.17
2018-09-24T20:12:15.031Z,2.53
2018-09-24T20:14:51.854Z,2.00
2018-09-24T20:17:28.007Z,2.37
2018-09-24T20:20:03.883Z,2.00
2018-09-24T20:22:38.862Z,2.40
2018-09-24T20:25:15.731Z,2.03
2018-09-24T20:27:51.026Z,2.07
2018-09-24T20:30:26.599Z,2.20
2018-09-24T20:33:01.653Z,2.20
2018-09-24T20:35:37.866Z,2.30
2018-09-24T20:38:12.742Z,2.13
2018-09-24T20:40:48.422Z,2.10
2018-09-24T20:43:23.479Z,2.10
2018-09-24T20:45:59.357Z,2.57
2018-09-24T20:48:35.482Z,2.10
2018-09-24T20:51:11.070Z,2.03
2018-09-24T20:53:46.089Z,1.87
2018-09-24T20:56:21.373Z,2.23
2018-09-24T20:58:56.252Z,2.13
2018-09-24T21:01:31.153Z,2.23
2018-09-24T21:04:06.006Z,1.93
2018-09-24T21:06:41.584Z,2.47
2018-09-24T21:09:16.572Z,1.67
2018-09-24T21:11:51.731Z,2.17
2018-09-24T21:14:26.876Z,2.50
2018-09-24T21:17:02.038Z,2.00
2018-09-24T21:19:36.955Z,2.10
2018-09-24T21:22:11.940Z,1.97
2018-09-24T21:24:46.806Z,2.63
2018-09-24T21:27:22.637Z,2.30
2018-09-24T21:29:57.547Z,2.40
2018-09-24T21:32:32.501Z,1.73
2018-09-24T21:35:07.553Z,2.30
2018-09-24T21:37:43.429Z,2.03
2018-09-24T21:40:18.285Z,1.50
2018-09-24T21:42:53.240Z,1.80
2018-09-24T21:45:28.213Z,1.70
2018-09-24T21:48:03.024Z,2.40
2018-09-24T21:50:37.928Z,1.53
2018-09-24T21:53:12.967Z,1.90
2018-09-24T21:55:47.898Z,1.73
2018-09-24T21:58:22.855Z,2.10
2018-09-24T22:00:57.658Z,2.60
2018-09-24T22:03:32.645Z,2.00
2018-09-24T22:06:07.634Z,1.73
2018-09-24T22:08:43.116Z,1.97
2018-09-24T22:11:18.000Z,2.43
2018-09-24T22:13:52.837Z,1.90
2018-09-24T22:16:27.835Z,1.80
2018-09-24T22:19:03.570Z,2.20
2018-09-24T22:21:38.451Z,2.37
2018-09-24T22:24:13.385Z,2.50
2018-09-24T22:26:48.463Z,1.97
2018-09-24T22:29:23.821Z,2.57
2018-09-24T22:31:58.656Z,2.67
2018-09-24T22:34:33.741Z,2.83
2018-09-24T22:37:08.770Z,2.73
2018-09-24T22:39:44.153Z,2.97
2018-09-24T22:42:18.981Z,2.60
2018-09-24T22:44:53.892Z,2.47
2018-09-24T22:47:28.807Z,2.20
2018-09-24T22:50:04.070Z,2.70
2018-09-24T22:52:38.861Z,2.77
2018-09-24T22:55:13.478Z,2.63
2018-09-24T22:57:48.373Z,2.47
2018-09-24T23:00:23.858Z,2.50
2018-09-24T23:02:58.810Z,2.70
2018-09-24T23:05:33.601Z,2.97
2018-09-24T23:08:08.599Z,2.67
2018-09-24T23:10:44.036Z,2.87
2018-09-24T23:13:18.873Z,3.30
2018-09-24T23:15:53.889Z,2.80
2018-09-24T23:18:28.769Z,2.83
2018-09-24T23:21:04.097Z,2.63
2018-09-24T23:23:38.952Z,2.53
2018-09-24T23:26:13.911Z,3.20
2018-09-24T23:28:48.809Z,2.27
2018-09-24T23:31:23.870Z,2.70
2018-09-24T23:33:58.874Z,3.10
2018-09-24T23:36:33.775Z,2.90
2018-09-24T23:39:08.656Z,2.80
2018-09-24T23:41:43.432Z,3.00
2018-09-24T23:44:18.283Z,2.47
2018-09-24T23:46:53.130Z,3.30
2018-09-24T23:49:27.844Z,3.10
2018-09-24T23:52:03.301Z,2.70
2018-09-24T23:54:38.124Z,3.07
2018-09-24T23:57:12.972Z,2.60
2018-09-24T23:59:47.791Z,2.90
